createdAt,value
2018-06-22T04:19:31.668Z,1.20
2018-06-22T04:22:01.992Z,1.23
2018-06-22T04:24:32.655Z,1.37
2018-06-22T04:27:01.964Z,1.53
2018-06-22T04:29:31.592Z,1.60
2018-06-22T04:32:00.962Z,1.43
2018-06-22T04:34:30.714Z,1.10
2018-06-22T04:37:23.011Z,1.30
2018-06-22T04:39:52.377Z,1.50
2018-06-22T04:42:22.568Z,1.40
2018-06-22T04:44:51.951Z,1.70
2018-06-22T04:47:21.351Z,1.50
2018-06-22T04:49:51.503Z,1.47
2018-06-22T04:52:52.595Z,2.30
2018-06-22T04:55:26.974Z,1.60
2018-06-22T04:57:56.373Z,1.20
2018-06-22T05:00:25.776Z,1.40
2018-06-22T05:02:55.096Z,1.47
2018-06-22T05:05:24.548Z,1.73
2018-06-22T05:07:53.922Z,1.60
2018-06-22T05:10:28.412Z,1.40
2018-06-22T05:12:57.878Z,2.03
2018-06-22T05:15:27.402Z,2.10
2018-06-22T05:17:56.957Z,2.80
2018-06-22T05:20:27.022Z,1.40
2018-06-22T05:22:56.977Z,1.30
2018-06-22T05:25:27.048Z,1.60
2018-06-22T05:27:58.452Z,1.47
2018-06-22T05:43:25.299Z,1.83
2018-06-22T05:45:54.886Z,1.30
2018-06-22T05:48:37.034Z,1.63
2018-06-22T05:51:07.329Z,1.43
2018-06-22T05:53:36.752Z,1.50
2018-06-22T05:56:07.447Z,1.43
2018-06-22T05:58:44.795Z,1.50
2018-06-22T06:01:14.193Z,1.77
2018-06-22T06:03:44.083Z,2.13
2018-06-22T06:06:14.090Z,2.00
2018-06-22T06:08:44.345Z,1.50
2018-06-22T06:11:13.740Z,1.97
2018-06-22T06:13:44.126Z,1.50
2018-06-22T06:16:15.139Z,1.63
2018-06-22T06:18:44.604Z,1.63
2018-06-22T06:21:14.111Z,1.80
2018-06-22T06:23:43.695Z,1.67
2018-06-22T06:26:13.191Z,1.50
2018-06-22T06:28:42.668Z,1.40
2018-06-22T06:31:12.007Z,1.20
2018-06-22T06:33:41.418Z,1.33
2018-06-22T06:36:10.762Z,1.27
2018-06-22T06:38:40.135Z,1.20
2018-06-22T06:41:10.090Z,1.40
2018-06-22T06:43:40.301Z,1.40
2018-06-22T06:46:14.142Z,1.60
2018-06-22T06:48:43.584Z,1.20
2018-06-22T06:51:12.956Z,1.30
2018-06-22T06:53:42.458Z,1.40
2018-06-22T06:56:11.954Z,1.57
2018-06-22T06:58:41.529Z,1.20
2018-06-22T07:01:11.881Z,1.40
2018-06-22T07:03:41.891Z,1.50
2018-06-22T07:06:12.345Z,1.50
2018-06-22T07:08:55.163Z,1.60
2018-06-22T07:11:34.337Z,1.40
2018-06-22T07:14:04.751Z,1.50
2018-06-22T07:16:36.693Z,1.20
2018-06-22T07:19:06.259Z,1.10
2018-06-22T07:21:37.333Z,1.47
2018-06-22T07:24:06.834Z,1.20
2018-06-22T07:26:36.419Z,1.30
2018-06-22T07:29:05.507Z,1.30
2018-06-22T07:31:34.981Z,1.73
2018-06-22T07:34:04.422Z,1.40
2018-06-22T07:36:34.302Z,1.37
2018-06-22T07:39:04.196Z,1.60
2018-06-22T07:41:33.695Z,1.37
2018-06-22T07:44:03.264Z,1.70
2018-06-22T07:46:33.151Z,1.50
2018-06-22T07:49:03.099Z,1.20
2018-06-22T07:51:34.236Z,1.30
2018-06-22T07:54:03.959Z,1.33
2018-06-22T07:56:33.842Z,1.70
2018-06-22T07:59:03.174Z,1.37
2018-06-22T08:01:32.900Z,1.27
2018-06-22T08:04:02.276Z,1.43
2018-06-22T08:06:31.779Z,1.37
2018-06-22T08:09:01.967Z,1.37
2018-06-22T08:11:31.875Z,1.40
2018-06-22T08:14:03.080Z,1.40
2018-06-22T08:16:36.414Z,1.23
2018-06-22T08:19:05.821Z,1.30
2018-06-22T08:21:35.963Z,1.50
2018-06-22T08:24:10.369Z,1.53
2018-06-22T08:26:39.891Z,1.60
2018-06-22T08:29:10.176Z,1.50
2018-06-22T08:31:39.549Z,1.20
2018-06-22T08:34:08.939Z,1.60
2018-06-22T08:36:38.466Z,1.30
2018-06-22T08:39:09.551Z,1.40
2018-06-22T08:41:39.349Z,1.83
2018-06-22T08:44:13.198Z,1.63
2018-06-22T08:46:43.033Z,1.70
2018-06-22T08:49:12.685Z,1.67
2018-06-22T08:51:42.213Z,1.27
2018-06-22T08:54:11.598Z,1.30
2018-06-22T08:56:43.658Z,1.63
2018-06-22T08:59:13.039Z,1.27
2018-06-22T09:01:42.396Z,1.30
2018-06-22T09:04:12.563Z,1.10
2018-06-22T09:06:42.480Z,1.40
2018-06-22T09:09:11.848Z,1.40
2018-06-22T09:11:42.329Z,1.30
2018-06-22T09:14:12.582Z,1.20
2018-06-22T09:16:41.949Z,1.30
2018-06-22T09:19:11.610Z,1.53
2018-06-22T09:21:40.996Z,1.50
2018-06-22T09:24:10.509Z,1.40
2018-06-22T09:26:40.552Z,1.40
2018-06-22T09:29:14.936Z,1.30
2018-06-22T09:31:44.760Z,1.30
2018-06-22T09:34:15.665Z,1.40
2018-06-22T09:36:45.715Z,1.27
2018-06-22T09:39:15.748Z,1.60
2018-06-22T09:41:45.442Z,1.27
2018-06-22T09:44:32.156Z,1.30
2018-06-22T09:47:01.550Z,1.27
2018-06-22T09:49:32.083Z,1.60
2018-06-22T09:52:01.636Z,1.53
2018-06-22T09:54:31.579Z,1.53
2018-06-22T09:57:01.636Z,1.60
2018-06-22T09:59:31.816Z,1.53
2018-06-22T10:02:01.694Z,1.57
2018-06-22T10:04:35.855Z,1.60
2018-06-22T10:07:05.935Z,1.30
2018-06-22T10:09:35.493Z,1.80
2018-06-22T10:12:06.054Z,1.30
2018-06-22T10:14:35.559Z,1.73
2018-06-22T10:17:04.984Z,1.57
2018-06-22T10:19:34.632Z,1.27
2018-06-22T10:22:04.368Z,1.30
2018-06-22T10:24:34.831Z,1.57
2018-06-22T10:27:04.368Z,1.43
2018-06-22T10:29:34.397Z,1.73
2018-06-22T10:32:03.879Z,1.10
2018-06-22T10:34:34.206Z,1.40
2018-06-22T10:37:03.322Z,1.40
2018-06-22T10:39:33.066Z,1.43
2018-06-22T10:42:03.340Z,1.30
2018-06-22T10:44:34.443Z,1.40
2018-06-22T10:47:05.324Z,1.40
2018-06-22T10:49:35.628Z,1.27
2018-06-22T10:52:05.287Z,1.40
2018-06-22T10:54:34.943Z,1.30
2018-06-22T10:57:05.359Z,1.20
2018-06-22T10:59:35.403Z,1.13
2018-06-22T11:02:05.122Z,1.40
2018-06-22T11:04:35.391Z,1.40
2018-06-22T11:07:05.417Z,1.40
2018-06-22T11:09:34.861Z,1.20
2018-06-22T11:12:04.579Z,1.20
2018-06-22T11:14:33.725Z,1.43
2018-06-22T11:17:04.106Z,1.03
2018-06-22T11:19:33.435Z,1.23
2018-06-22T11:22:03.079Z,1.67
2018-06-22T11:24:33.352Z,1.37
2018-06-22T11:27:02.840Z,1.60
2018-06-22T11:29:32.196Z,1.43
2018-06-22T11:32:02.309Z,1.40
2018-06-22T11:34:31.791Z,1.80
2018-06-22T11:37:01.152Z,1.30
2018-06-22T11:39:31.173Z,1.23
2018-06-22T11:42:01.295Z,1.67
2018-06-22T11:44:30.773Z,1.80
2018-06-22T11:49:51.444Z,1.60
2018-06-22T11:52:22.732Z,1.60
2018-06-22T11:54:56.474Z,1.50
2018-06-22T11:57:25.657Z,1.70
2018-06-22T11:59:56.732Z,1.53
2018-06-22T12:02:27.502Z,1.73
2018-06-22T12:04:57.217Z,1.57
2018-06-22T12:07:27.914Z,1.63
2018-06-22T12:09:58.245Z,2.10
2018-06-22T12:12:27.842Z,1.70
2018-06-22T12:14:58.667Z,1.43
2018-06-22T12:17:29.275Z,1.30
2018-06-22T12:20:03.408Z,1.40
2018-06-22T12:22:33.611Z,1.27
2018-06-22T12:25:04.011Z,1.50
2018-06-22T12:27:33.450Z,1.80
2018-06-22T12:30:02.814Z,1.50
2018-06-22T12:32:32.290Z,1.10
2018-06-22T12:35:01.693Z,1.70
2018-06-22T12:37:31.310Z,1.37
2018-06-22T12:40:00.747Z,1.30
2018-06-22T12:42:31.583Z,1.10
2018-06-22T12:45:01.200Z,1.50
2018-06-22T12:47:31.486Z,1.40
2018-06-22T12:50:00.909Z,1.40
2018-06-22T12:52:30.413Z,1.00
2018-06-22T12:55:00.634Z,1.13
2018-06-22T13:10:25.340Z,0.90
2018-06-22T13:12:54.950Z,0.87
2018-06-22T13:15:24.090Z,0.80
2018-06-22T13:17:53.774Z,1.10
2018-06-22T13:20:23.358Z,1.07
2018-06-22T13:22:53.472Z,0.67
2018-06-22T13:25:22.860Z,0.70
2018-06-22T13:27:52.656Z,1.03
2018-06-22T13:30:23.603Z,0.90
2018-06-22T13:32:53.946Z,0.83
2018-06-22T13:35:24.179Z,0.80
2018-06-22T13:37:53.356Z,1.00
2018-06-22T13:40:22.695Z,0.90
2018-06-22T13:42:52.266Z,1.00
2018-06-22T13:45:22.607Z,1.10
2018-06-22T13:47:53.266Z,0.83
2018-06-22T13:50:22.705Z,1.10
2018-06-22T13:52:53.050Z,1.00
2018-06-22T13:55:23.741Z,1.10
2018-06-22T13:57:53.453Z,1.00
2018-06-22T14:00:23.017Z,1.17
2018-06-22T14:02:52.358Z,1.00
2018-06-22T14:05:27.259Z,0.80
2018-06-22T14:07:56.389Z,1.07
2018-06-22T14:10:25.781Z,0.80
2018-06-22T14:12:55.381Z,1.30
2018-06-22T14:15:25.864Z,0.83
2018-06-22T14:17:56.602Z,0.80
2018-06-22T14:20:26.051Z,1.00
2018-06-22T14:22:55.433Z,1.00
2018-06-22T14:25:24.989Z,1.17
2018-06-22T14:27:54.403Z,1.00
2018-06-22T14:30:23.765Z,0.90
2018-06-22T14:32:54.304Z,0.90
2018-06-22T14:35:23.837Z,0.90
2018-06-22T14:37:53.700Z,0.63
2018-06-22T14:40:25.113Z,0.77
2018-06-22T14:42:54.488Z,0.70
2018-06-22T14:45:24.854Z,0.80
2018-06-22T14:47:54.221Z,0.77
2018-06-22T14:50:23.656Z,0.97
2018-06-22T14:52:53.108Z,0.90
2018-06-22T14:55:27.609Z,0.93
2018-06-22T14:58:02.121Z,1.80
2018-06-22T15:00:37.425Z,1.00
2018-06-22T15:03:12.816Z,1.00
2018-06-22T15:05:47.598Z,0.97
2018-06-22T15:08:21.040Z,0.90
2018-06-22T15:10:50.392Z,0.70
2018-06-22T15:13:19.847Z,0.97
2018-06-22T15:15:49.351Z,1.10
2018-06-22T15:18:19.017Z,1.10
2018-06-22T15:20:49.311Z,0.80
2018-06-22T15:23:19.420Z,1.07
2018-06-22T15:25:48.449Z,1.70
2018-06-22T15:28:17.891Z,0.97
2018-06-22T15:30:47.329Z,1.00
2018-06-22T15:33:22.906Z,1.00
2018-06-22T15:38:03.861Z,0.90
2018-06-22T15:40:39.368Z,0.70
2018-06-22T15:43:14.336Z,0.70
2018-06-22T15:45:49.234Z,0.80
2018-06-22T15:48:23.739Z,1.00
2018-06-22T15:50:59.046Z,0.73
2018-06-22T15:53:36.004Z,0.80
2018-06-22T15:56:11.233Z,0.70
2018-06-22T15:58:40.871Z,1.07
2018-06-22T16:01:10.603Z,0.90
2018-06-22T16:03:54.450Z,0.90
2018-06-22T16:06:24.622Z,0.77
2018-06-22T16:08:55.976Z,0.67
2018-06-22T16:11:29.444Z,0.90
2018-06-22T16:14:04.263Z,0.73
2018-06-22T16:16:39.674Z,0.97
2018-06-22T16:19:14.766Z,0.83
2018-06-22T16:21:49.836Z,0.60
2018-06-22T16:24:24.688Z,0.80
2018-06-22T16:26:59.314Z,0.53
2018-06-22T16:29:28.851Z,0.70
2018-06-22T16:31:58.331Z,1.00
2018-06-22T16:34:27.908Z,1.00
2018-06-22T16:36:57.319Z,0.97
2018-06-22T16:39:26.697Z,0.80
2018-06-22T16:41:56.933Z,0.70
2018-06-22T16:44:26.480Z,1.13
2018-06-22T16:46:56.291Z,1.97
2018-06-22T16:49:25.771Z,1.30
2018-06-22T16:51:55.428Z,1.20
2018-06-22T16:54:24.994Z,0.77
2018-06-22T16:56:54.636Z,1.30
2018-06-22T16:59:24.193Z,1.00
2018-06-22T17:01:53.623Z,1.30
2018-06-22T17:04:27.854Z,1.10
2018-06-22T17:07:02.724Z,1.00
2018-06-22T17:09:37.584Z,0.90
2018-06-22T17:12:12.225Z,1.20
2018-06-22T17:14:51.952Z,1.30
2018-06-22T17:17:26.713Z,1.23
2018-06-22T17:19:56.185Z,1.10
2018-06-22T17:22:25.752Z,0.80
2018-06-22T17:24:55.249Z,1.13
2018-06-22T17:27:37.903Z,1.10
2018-06-22T17:30:22.958Z,1.00
2018-06-22T17:32:52.286Z,0.80
2018-06-22T17:35:21.742Z,2.07
2018-06-22T17:37:51.250Z,0.80
2018-06-22T17:40:20.682Z,1.40
2018-06-22T17:42:51.142Z,1.43
2018-06-22T17:45:20.576Z,1.40
2018-06-22T17:47:51.640Z,0.90
2018-06-22T17:50:26.619Z,0.80
2018-06-22T17:52:57.092Z,1.10
2018-06-22T17:55:26.645Z,0.77
2018-06-22T17:57:57.277Z,0.70
2018-06-22T18:00:33.363Z,1.20
2018-06-22T18:03:08.821Z,0.93
2018-06-22T18:05:43.590Z,0.80
2018-06-22T18:08:19.417Z,0.90
2018-06-22T18:10:54.212Z,0.80
2018-06-22T18:13:24.992Z,1.00
2018-06-22T18:15:54.531Z,0.70
2018-06-22T18:18:24.960Z,0.90
2018-06-22T18:20:54.450Z,0.93
2018-06-22T18:23:23.874Z,1.00
2018-06-22T18:25:58.246Z,1.07
2018-06-22T18:28:29.126Z,1.10
2018-06-22T18:31:04.445Z,1.10
2018-06-22T18:33:38.959Z,0.90
2018-06-22T18:36:08.589Z,1.20
2018-06-22T18:38:38.018Z,1.10
2018-06-22T18:41:07.766Z,0.83
2018-06-22T18:44:13.418Z,1.10
2018-06-22T18:46:42.884Z,1.03
2018-06-22T18:49:12.692Z,0.87
2018-06-22T18:51:42.474Z,0.90
2018-06-22T18:54:18.164Z,1.00
2018-06-22T18:56:53.847Z,1.10
2018-06-22T18:59:28.978Z,0.90
2018-06-22T19:02:03.670Z,1.00
2018-06-22T19:04:32.818Z,3.37
2018-06-22T19:07:02.333Z,1.43
2018-06-22T19:09:31.787Z,0.83
2018-06-22T19:12:02.772Z,1.07
2018-06-22T19:14:32.686Z,1.00
2018-06-22T19:17:02.447Z,1.10
2018-06-22T19:19:31.900Z,0.80
2018-06-22T19:22:01.973Z,1.13
2018-06-22T19:24:32.685Z,1.23
2018-06-22T19:27:02.225Z,1.10
2018-06-22T19:29:32.103Z,1.03
2018-06-22T19:32:02.278Z,1.10
2018-06-22T19:34:37.092Z,1.07
2018-06-22T19:37:07.372Z,1.40
2018-06-22T19:39:38.564Z,1.30
2018-06-22T19:42:08.685Z,1.20
2018-06-22T19:57:36.399Z,1.10
2018-06-22T20:00:07.422Z,1.53
2018-06-22T20:02:37.760Z,1.67
2018-06-22T20:05:09.196Z,1.30
2018-06-22T20:07:38.878Z,2.07
2018-06-22T20:10:08.784Z,1.77
2018-06-22T20:12:39.663Z,1.20
2018-06-22T20:15:09.659Z,1.30
2018-06-22T20:17:43.396Z,1.10
2018-06-22T20:20:18.978Z,1.10
2018-06-22T20:22:50.566Z,1.20
2018-06-22T20:25:27.001Z,1.33
2018-06-22T20:27:56.439Z,1.50
2018-06-22T20:30:27.103Z,1.20
2018-06-22T20:32:57.999Z,1.43
2018-06-22T20:35:32.437Z,1.50
2018-06-22T20:38:07.798Z,1.13
2018-06-22T20:40:42.581Z,1.77
2018-06-22T20:43:17.453Z,1.60
2018-06-22T20:45:52.076Z,1.40
2018-06-22T20:48:27.476Z,1.43
2018-06-22T20:50:57.578Z,2.20
2018-06-22T20:53:29.761Z,1.80
2018-06-22T20:55:59.240Z,1.57
2018-06-22T20:58:28.859Z,1.43
2018-06-22T21:01:02.841Z,1.70
2018-06-22T21:03:32.357Z,1.77
2018-06-22T21:06:09.743Z,1.47
2018-06-22T21:08:39.318Z,1.53
2018-06-22T21:11:09.083Z,1.30
2018-06-22T21:13:40.202Z,1.40
2018-06-22T21:16:10.184Z,1.20
2018-06-22T21:18:39.896Z,1.63
2018-06-22T21:21:14.818Z,1.50
2018-06-22T21:23:45.276Z,1.80
2018-06-22T21:26:16.036Z,1.40
2018-06-22T21:28:51.412Z,1.17
2018-06-22T21:31:26.782Z,1.37
2018-06-22T21:34:01.616Z,1.30
2018-06-22T21:36:37.602Z,1.50
2018-06-22T21:39:10.893Z,1.97
2018-06-22T21:41:40.486Z,1.70
2018-06-22T21:44:15.057Z,1.87
2018-06-22T21:46:45.104Z,1.70
2018-06-22T21:49:14.819Z,1.63
2018-06-22T21:51:44.319Z,1.47
2018-06-22T21:54:14.338Z,1.40
2018-06-22T21:56:43.714Z,1.60
2018-06-22T21:59:13.207Z,1.77
2018-06-22T22:01:42.639Z,2.30
2018-06-22T22:04:12.111Z,1.60
2018-06-22T22:06:46.555Z,1.20
2018-06-22T22:09:18.008Z,1.60
2018-06-22T22:11:53.405Z,1.90
2018-06-22T22:14:28.033Z,1.60
2018-06-22T22:16:57.592Z,1.60
2018-06-22T22:19:27.035Z,1.63
2018-06-22T22:21:56.503Z,1.83
2018-06-22T22:24:26.630Z,1.77
2018-06-22T22:26:56.509Z,1.60
2018-06-22T22:29:26.047Z,2.20
2018-06-22T22:31:56.685Z,2.03
2018-06-22T22:34:26.293Z,1.63
2018-06-22T22:36:55.801Z,1.50
2018-06-22T22:39:26.388Z,1.67
2018-06-22T22:41:57.038Z,1.70
2018-06-22T22:44:26.497Z,1.80
2018-06-22T22:47:00.508Z,1.60
2018-06-22T22:49:31.619Z,1.80
2018-06-22T22:52:01.144Z,1.80
2018-06-22T22:54:30.217Z,1.80
2018-06-22T22:57:00.603Z,1.80
2018-06-22T22:59:32.857Z,1.70
2018-06-22T23:02:02.302Z,2.00
2018-06-22T23:04:33.695Z,2.10
2018-06-22T23:07:03.678Z,1.90
2018-06-22T23:09:33.168Z,1.90
2018-06-22T23:12:02.671Z,1.80
2018-06-22T23:14:32.204Z,1.60
2018-06-22T23:17:02.206Z,1.87
2018-06-22T23:19:31.700Z,1.90
2018-06-22T23:22:01.512Z,1.77
2018-06-22T23:24:30.970Z,1.60
2018-06-22T23:27:01.187Z,2.10
2018-06-22T23:29:30.305Z,2.10
2018-06-22T23:31:59.741Z,1.80
2018-06-22T23:34:29.187Z,1.73
2018-06-22T23:36:58.624Z,1.77
2018-06-22T23:39:28.619Z,2.00
2018-06-22T23:41:58.013Z,1.70
2018-06-22T23:44:28.754Z,2.70
2018-06-22T23:46:58.175Z,2.20
2018-06-22T23:49:36.827Z,1.90
2018-06-22T23:52:12.373Z,1.77
2018-06-22T23:54:47.361Z,1.80
2018-06-22T23:57:16.710Z,2.07
2018-06-22T23:59:47.137Z,1.70
